Hugo, Minnesota
Current Conditions -  °F | °C
As of 4:45 PM on Tuesday 25 Nov 2014 (Local Time) from KANE Reporting Station
Overcast Overcast  
Wind Chill: 19°   Ceiling: 6000
Heat Index: 25°   Visibility: 10mi
Dew Point: 16°   Wind: 5mph
Humidity: 69%   Direction: 140°SE
Pressure: 30.03"   Gusts: NA
Location:  45.16°N, 92.99°W
Report Text: KANE 252245Z 14004KT 10SM OVC060 M04/M09 A3003
Loading
Personal Weather Stations






























Interactive Weather Map New forecast layout! Learn more

10-Day Weather Forecast

Advertisements
Track Severe Weather on mobile